PWSweather.com
Personal Weather Stations
Station Observations
KCTCOLEB1
Sandy Brook, Colebrook, CT 06021

Sandy BrookColebrook, CT 06021

Lat: 42.0018, Lon: -73.0825

Elevation: 935

Station Type: Davis Vantage Pro2 + Solar + UV

High Low Average
Temperature 87.2°F30.7°C 59.0°F15.0°C 70.0°F21.1°C
Dew Point 69.1°F20.6°C 57.0°F13.9°C 62.0°F16.7°C
Winds 2.3 mph 3.7 kmh Calm Calm Calm SCalm S
Wind Gusts 3.5 mph5.6 kmh -- --
Humidity 99% 41% 79%
Pressure 30.11 in1019.6 mb 30.00 in1015.9 mb -
Precipitation 0.01 in0.3 mm - -
Hour Temp Dew Point Humidity Winds Wind Gusts Pressure Precip Precip Rate Daily Precip Total
12:00 AM 64.2°F17.9°C 62.7°F17.1°C 95% Calm Calm -- 30.01 in1016.3 mb - 0.00 in0.0 mm 0.00 in0.0 mm
12:10 AM 64.0°F17.8°C 62.8°F17.1°C 96% Calm Calm -- 30.01 in1016.3 mb - 0.00 in0.0 mm 0.00 in0.0 mm
12:20 AM 63.8°F17.7°C 62.7°F17.1°C 96% Calm Calm -- 30.01 in1016.3 mb - 0.00 in0.0 mm 0.00 in0.0 mm
12:30 AM 63.6°F17.6°C 62.4°F16.9°C 96% Calm Calm -- 30.01 in1016.3 mb - 0.00 in0.0 mm 0.00 in0.0 mm
12:40 AM 63.4°F17.4°C 62.2°F16.8°C 96% Calm Calm -- 30.01 in1016.3 mb - 0.00 in0.0 mm 0.00 in0.0 mm
12:50 AM 63.2°F17.3°C 62.0°F16.7°C 96% Calm Calm -- 30.01 in1016.3 mb - 0.00 in0.0 mm 0.00 in0.0 mm
01:00 AM 63.0°F17.2°C 61.8°F16.6°C 96% Calm Calm -- 30.00 in1015.9 mb - 0.00 in0.0 mm 0.00 in0.0 mm
01:10 AM 62.8°F17.1°C 61.3°F16.3°C 95% Calm Calm -- 30.01 in1016.3 mb - 0.00 in0.0 mm 0.00 in0.0 mm
01:20 AM 62.6°F17.0°C 61.1°F16.2°C 95% Calm Calm -- 30.01 in1016.3 mb - 0.00 in0.0 mm 0.00 in0.0 mm
01:30 AM 62.3°F16.8°C 61.1°F16.2°C 96% Calm Calm -- 30.01 in1016.3 mb - 0.00 in0.0 mm 0.00 in0.0 mm
01:40 AM 62.1°F16.7°C 60.9°F16.1°C 96% Calm Calm -- 30.01 in1016.3 mb - 0.00 in0.0 mm 0.00 in0.0 mm
01:50 AM 61.9°F16.6°C 60.7°F15.9°C 96% Calm Calm -- 30.01 in1016.3 mb - 0.00 in0.0 mm 0.00 in0.0 mm
02:00 AM 61.7°F16.5°C 60.5°F15.8°C 96% Calm Calm -- 30.01 in1016.3 mb - 0.00 in0.0 mm 0.00 in0.0 mm
02:10 AM 61.5°F16.4°C 60.3°F15.7°C 96% Calm Calm -- 30.01 in1016.3 mb - 0.00 in0.0 mm 0.00 in0.0 mm
02:20 AM 61.4°F16.3°C 60.2°F15.7°C 96% Calm Calm -- 30.02 in1016.6 mb - 0.00 in0.0 mm 0.00 in0.0 mm
02:30 AM 61.4°F16.3°C 60.2°F15.7°C 96% Calm Calm -- 30.02 in1016.6 mb - 0.00 in0.0 mm 0.00 in0.0 mm
02:40 AM 61.4°F16.3°C 60.5°F15.8°C 97% Calm Calm -- 30.02 in1016.6 mb - 0.00 in0.0 mm 0.00 in0.0 mm
02:50 AM 61.4°F16.3°C 60.5°F15.8°C 97% Calm Calm -- 30.02 in1016.6 mb - 0.00 in0.0 mm 0.00 in0.0 mm
03:00 AM 61.3°F16.3°C 60.4°F15.8°C 97% Calm Calm -- 30.02 in1016.6 mb - 0.00 in0.0 mm 0.00 in0.0 mm
03:10 AM 61.2°F16.2°C 60.3°F15.7°C 97% Calm Calm -- 30.02 in1016.6 mb - 0.00 in0.0 mm 0.00 in0.0 mm
03:20 AM 61.1°F16.2°C 60.2°F15.7°C 97% Calm Calm -- 30.02 in1016.6 mb - 0.00 in0.0 mm 0.00 in0.0 mm
03:30 AM 61.0°F16.1°C 60.1°F15.6°C 97% Calm Calm -- 30.02 in1016.6 mb - 0.00 in0.0 mm 0.00 in0.0 mm
03:40 AM 60.8°F16.0°C 59.9°F15.5°C 97% Calm Calm -- 30.02 in1016.6 mb - 0.00 in0.0 mm 0.00 in0.0 mm
03:50 AM 60.7°F15.9°C 59.8°F15.4°C 97% Calm Calm -- 30.02 in1016.6 mb - 0.00 in0.0 mm 0.00 in0.0 mm
04:00 AM 60.5°F15.8°C 59.6°F15.3°C 97% Calm Calm -- 30.02 in1016.6 mb - 0.00 in0.0 mm 0.00 in0.0 mm
04:10 AM 60.3°F15.7°C 59.5°F15.3°C 97% Calm Calm -- 30.02 in1016.6 mb - 0.00 in0.0 mm 0.00 in0.0 mm
04:20 AM 60.2°F15.7°C 59.3°F15.2°C 97% Calm Calm -- 30.03 in1016.9 mb - 0.00 in0.0 mm 0.00 in0.0 mm
04:30 AM 60.0°F15.6°C 59.1°F15.1°C 97% Calm Calm -- 30.03 in1016.9 mb - 0.00 in0.0 mm 0.00 in0.0 mm
04:40 AM 59.8°F15.4°C 58.7°F14.8°C 96% Calm Calm -- 30.03 in1016.9 mb - 0.00 in0.0 mm 0.00 in0.0 mm
04:50 AM 59.6°F15.3°C 58.5°F14.7°C 96% Calm Calm -- 30.04 in1017.3 mb - 0.00 in0.0 mm 0.00 in0.0 mm
05:00 AM 59.5°F15.3°C 58.6°F14.8°C 97% Calm Calm -- 30.04 in1017.3 mb - 0.00 in0.0 mm 0.00 in0.0 mm
05:10 AM 59.4°F15.2°C 58.5°F14.7°C 97% Calm Calm -- 30.04 in1017.3 mb - 0.00 in0.0 mm 0.00 in0.0 mm
05:20 AM 59.3°F15.2°C 58.5°F14.7°C 97% Calm Calm -- 30.04 in1017.3 mb - 0.00 in0.0 mm 0.00 in0.0 mm
05:30 AM 59.4°F15.2°C 58.5°F14.7°C 97% Calm Calm -- 30.04 in1017.3 mb - 0.00 in0.0 mm 0.00 in0.0 mm
05:40 AM 59.4°F15.2°C 58.5°F14.7°C 97% Calm Calm -- 30.05 in1017.6 mb - 0.00 in0.0 mm 0.00 in0.0 mm
05:50 AM 59.5°F15.3°C 58.6°F14.8°C 97% Calm Calm -- 30.05 in1017.6 mb - 0.00 in0.0 mm 0.00 in0.0 mm
06:00 AM 59.7°F15.4°C 59.2°F15.1°C 98% Calm Calm -- 30.05 in1017.6 mb - 0.00 in0.0 mm 0.00 in0.0 mm
06:10 AM 60.0°F15.6°C 59.5°F15.3°C 98% Calm Calm -- 30.05 in1017.6 mb - 0.00 in0.0 mm 0.00 in0.0 mm
06:20 AM 60.4°F15.8°C 59.8°F15.4°C 98% Calm Calm -- 30.05 in1017.6 mb - 0.00 in0.0 mm 0.00 in0.0 mm
06:30 AM 60.8°F16.0°C 60.2°F15.7°C 98% Calm Calm -- 30.05 in1017.6 mb - 0.00 in0.0 mm 0.00 in0.0 mm
06:40 AM 61.2°F16.2°C 60.6°F15.9°C 98% Calm Calm -- 30.06 in1017.9 mb - 0.00 in0.0 mm 0.00 in0.0 mm
06:50 AM 61.4°F16.3°C 60.8°F16.0°C 98% Calm Calm -- 30.06 in1017.9 mb - 0.00 in0.0 mm 0.00 in0.0 mm
07:00 AM 61.7°F16.5°C 61.1°F16.2°C 98% Calm Calm -- 30.06 in1017.9 mb - 0.00 in0.0 mm 0.00 in0.0 mm
07:10 AM 62.2°F16.8°C 61.6°F16.4°C 98% Calm Calm -- 30.05 in1017.6 mb - 0.00 in0.0 mm 0.00 in0.0 mm
07:20 AM 62.7°F17.1°C 62.1°F16.7°C 98% Calm Calm -- 30.06 in1017.9 mb - 0.00 in0.0 mm 0.00 in0.0 mm
07:30 AM 63.4°F17.4°C 62.8°F17.1°C 98% Calm Calm -- 30.06 in1017.9 mb - 0.00 in0.0 mm 0.00 in0.0 mm
07:40 AM 64.2°F17.9°C 63.6°F17.6°C 98% Calm Calm -- 30.06 in1017.9 mb - 0.00 in0.0 mm 0.00 in0.0 mm
07:50 AM 65.0°F18.3°C 64.4°F18.0°C 98% Calm Calm -- 30.05 in1017.6 mb - 0.00 in0.0 mm 0.00 in0.0 mm
08:00 AM 65.8°F18.8°C 65.2°F18.4°C 98% Calm Calm -- 30.06 in1017.9 mb - 0.00 in0.0 mm 0.00 in0.0 mm
08:10 AM 66.8°F19.3°C 66.5°F19.2°C 99% Calm Calm 2.3 mph3.7 kmh 30.05 in1017.6 mb - 0.00 in0.0 mm 0.00 in0.0 mm
08:20 AM 67.2°F19.6°C 66.6°F19.2°C 98% Calm Calm -- 30.06 in1017.9 mb - 0.00 in0.0 mm 0.00 in0.0 mm
08:30 AM 67.8°F19.9°C 67.2°F19.6°C 98% Calm Calm 1.2 mph1.9 kmh 30.06 in1017.9 mb - 0.00 in0.0 mm 0.00 in0.0 mm
08:40 AM 68.5°F20.3°C 68.0°F20.0°C 98% Calm Calm -- 30.05 in1017.6 mb - 0.00 in0.0 mm 0.00 in0.0 mm
08:50 AM 70.1°F21.2°C 67.9°F19.9°C 93% Calm Calm -- 30.06 in1017.9 mb - 0.00 in0.0 mm 0.00 in0.0 mm
09:00 AM 71.5°F21.9°C 66.1°F18.9°C 83% 1.2 mph SSW1.9 kmh SSW 3.5 mph5.6 kmh 30.05 in1017.6 mb - 0.00 in0.0 mm 0.00 in0.0 mm
09:10 AM 73.4°F23.0°C 68.2°F20.1°C 84% 1.2 mph SW1.9 kmh SW 2.3 mph3.7 kmh 30.06 in1017.9 mb - 0.00 in0.0 mm 0.00 in0.0 mm
09:20 AM 75.0°F23.9°C 69.1°F20.6°C 82% Calm Calm -- 30.06 in1017.9 mb - 0.00 in0.0 mm 0.00 in0.0 mm
09:30 AM 76.6°F24.8°C 68.1°F20.1°C 75% Calm Calm -- 30.06 in1017.9 mb - 0.00 in0.0 mm 0.00 in0.0 mm
09:40 AM 77.7°F25.4°C 67.5°F19.7°C 71% 2.3 mph WNW3.7 kmh WNW 3.5 mph5.6 kmh 30.06 in1017.9 mb - 0.00 in0.0 mm 0.00 in0.0 mm
09:50 AM 78.4°F25.8°C 67.4°F19.7°C 69% Calm Calm 1.2 mph1.9 kmh 30.06 in1017.9 mb - 0.00 in0.0 mm 0.00 in0.0 mm
10:00 AM 79.4°F26.3°C 67.9°F19.9°C 68% 1.2 mph W1.9 kmh W 3.5 mph5.6 kmh 30.06 in1017.9 mb - 0.00 in0.0 mm 0.00 in0.0 mm
10:10 AM 80.9°F27.2°C 68.0°F20.0°C 65% Calm Calm -- 30.06 in1017.9 mb - 0.00 in0.0 mm 0.00 in0.0 mm
10:20 AM 81.7°F27.6°C 67.9°F19.9°C 63% Calm Calm -- 30.06 in1017.9 mb - 0.00 in0.0 mm 0.00 in0.0 mm
10:30 AM 82.0°F27.8°C 67.2°F19.6°C 61% Calm Calm -- 30.06 in1017.9 mb - 0.00 in0.0 mm 0.00 in0.0 mm
10:40 AM 81.6°F27.6°C 64.9°F18.3°C 57% 1.2 mph E1.9 kmh E -- 30.06 in1017.9 mb - 0.00 in0.0 mm 0.00 in0.0 mm
10:50 AM 80.5°F26.9°C 68.6°F20.3°C 67% Calm Calm -- 30.06 in1017.9 mb - 0.01 in0.3 mm 0.01 in0.3 mm
11:00 AM 81.9°F27.7°C 66.7°F19.3°C 60% 1.2 mph NNW1.9 kmh NNW 2.3 mph3.7 kmh 30.06 in1017.9 mb - 0.00 in0.0 mm 0.01 in0.3 mm
11:10 AM 82.8°F28.2°C 64.0°F17.8°C 53% 1.2 mph WSW1.9 kmh WSW 2.3 mph3.7 kmh 30.06 in1017.9 mb - 0.00 in0.0 mm 0.01 in0.3 mm
11:20 AM 83.4°F28.6°C 65.0°F18.3°C 54% Calm Calm 2.3 mph3.7 kmh 30.06 in1017.9 mb - 0.00 in0.0 mm 0.01 in0.3 mm
11:30 AM 84.3°F29.1°C 64.2°F17.9°C 51% 1.2 mph WSW1.9 kmh WSW 2.3 mph3.7 kmh 30.06 in1017.9 mb - 0.00 in0.0 mm 0.01 in0.3 mm
11:40 AM 83.1°F28.4°C 65.2°F18.4°C 55% Calm Calm -- 30.06 in1017.9 mb - 0.00 in0.0 mm 0.01 in0.3 mm
11:50 AM 80.9°F27.2°C 65.7°F18.7°C 60% Calm Calm -- 30.06 in1017.9 mb - 0.00 in0.0 mm 0.01 in0.3 mm
12:00 PM 81.6°F27.6°C 65.4°F18.6°C 58% Calm Calm -- 30.06 in1017.9 mb - 0.00 in0.0 mm 0.01 in0.3 mm
12:10 PM 82.8°F28.2°C 62.3°F16.8°C 50% Calm Calm 1.2 mph1.9 kmh 30.06 in1017.9 mb - 0.00 in0.0 mm 0.01 in0.3 mm
12:20 PM 83.8°F28.8°C 64.3°F17.9°C 52% 1.2 mph N1.9 kmh N 2.3 mph3.7 kmh 30.06 in1017.9 mb - 0.00 in0.0 mm 0.01 in0.3 mm
12:30 PM 84.7°F29.3°C 61.6°F16.4°C 46% 1.2 mph S1.9 kmh S 2.3 mph3.7 kmh 30.06 in1017.9 mb - 0.00 in0.0 mm 0.01 in0.3 mm
12:40 PM 84.0°F28.9°C 63.9°F17.7°C 51% 1.2 mph WNW1.9 kmh WNW 1.2 mph1.9 kmh 30.06 in1017.9 mb - 0.00 in0.0 mm 0.01 in0.3 mm
12:50 PM 85.1°F29.5°C 63.8°F17.7°C 49% 1.2 mph NW1.9 kmh NW 3.5 mph5.6 kmh 30.06 in1017.9 mb - 0.00 in0.0 mm 0.01 in0.3 mm
01:00 PM 85.3°F29.6°C 61.6°F16.4°C 45% 1.2 mph E1.9 kmh E 2.3 mph3.7 kmh 30.06 in1017.9 mb - 0.00 in0.0 mm 0.01 in0.3 mm
01:10 PM 86.0°F30.0°C 60.2°F15.7°C 42% 1.2 mph NW1.9 kmh NW 1.2 mph1.9 kmh 30.06 in1017.9 mb - 0.00 in0.0 mm 0.01 in0.3 mm
01:20 PM 86.7°F30.4°C 63.4°F17.4°C 46% Calm Calm -- 30.06 in1017.9 mb - 0.00 in0.0 mm 0.01 in0.3 mm
01:30 PM 86.3°F30.2°C 63.7°F17.6°C 47% Calm Calm -- 30.05 in1017.6 mb - 0.00 in0.0 mm 0.01 in0.3 mm
01:40 PM 87.2°F30.7°C 63.9°F17.7°C 46% 1.2 mph NNE1.9 kmh NNE 3.5 mph5.6 kmh 30.05 in1017.6 mb - 0.00 in0.0 mm 0.01 in0.3 mm
01:50 PM 86.7°F30.4°C 60.8°F16.0°C 42% 1.2 mph NNE1.9 kmh NNE 2.3 mph3.7 kmh 30.06 in1017.9 mb - 0.00 in0.0 mm 0.01 in0.3 mm
02:00 PM 85.2°F29.6°C 65.5°F18.6°C 52% Calm Calm -- 30.06 in1017.9 mb - 0.00 in0.0 mm 0.01 in0.3 mm
02:10 PM 84.2°F29.0°C 65.2°F18.4°C 53% Calm Calm -- 30.06 in1017.9 mb - 0.00 in0.0 mm 0.01 in0.3 mm
02:20 PM 84.6°F29.2°C 65.6°F18.7°C 53% Calm Calm -- 30.05 in1017.6 mb - 0.00 in0.0 mm 0.01 in0.3 mm
02:30 PM 85.1°F29.5°C 61.4°F16.3°C 45% 1.2 mph N1.9 kmh N 1.2 mph1.9 kmh 30.05 in1017.6 mb - 0.00 in0.0 mm 0.01 in0.3 mm
02:40 PM 84.8°F29.3°C 58.4°F14.7°C 41% 1.2 mph SE1.9 kmh SE 3.5 mph5.6 kmh 30.05 in1017.6 mb - 0.00 in0.0 mm 0.01 in0.3 mm
02:50 PM 85.5°F29.7°C 60.4°F15.8°C 43% 1.2 mph N1.9 kmh N 2.3 mph3.7 kmh 30.04 in1017.3 mb - 0.00 in0.0 mm 0.01 in0.3 mm
03:00 PM 85.9°F29.9°C 66.2°F19.0°C 52% Calm Calm -- 30.04 in1017.3 mb - 0.00 in0.0 mm 0.01 in0.3 mm
03:10 PM 85.4°F29.7°C 64.1°F17.8°C 49% Calm Calm -- 30.04 in1017.3 mb - 0.00 in0.0 mm 0.01 in0.3 mm
03:20 PM 84.5°F29.2°C 62.0°F16.7°C 47% Calm Calm -- 30.04 in1017.3 mb - 0.00 in0.0 mm 0.01 in0.3 mm
03:30 PM 83.5°F28.6°C 62.9°F17.2°C 50% Calm Calm 1.2 mph1.9 kmh 30.04 in1017.3 mb - 0.00 in0.0 mm 0.01 in0.3 mm
03:40 PM 82.1°F27.8°C 63.3°F17.4°C 53% 1.2 mph NE1.9 kmh NE 1.2 mph1.9 kmh 30.04 in1017.3 mb - 0.00 in0.0 mm 0.01 in0.3 mm
03:50 PM 80.5°F26.9°C 61.3°F16.3°C 52% 1.2 mph WNW1.9 kmh WNW 2.3 mph3.7 kmh 30.04 in1017.3 mb - 0.00 in0.0 mm 0.01 in0.3 mm
04:00 PM 79.4°F26.3°C 62.8°F17.1°C 57% Calm Calm -- 30.04 in1017.3 mb - 0.00 in0.0 mm 0.01 in0.3 mm
04:10 PM 78.8°F26.0°C 62.8°F17.1°C 58% Calm Calm -- 30.04 in1017.3 mb - 0.00 in0.0 mm 0.01 in0.3 mm
04:20 PM 78.3°F25.7°C 64.2°F17.9°C 62% Calm Calm -- 30.04 in1017.3 mb - 0.00 in0.0 mm 0.01 in0.3 mm
04:30 PM 77.7°F25.4°C 63.2°F17.3°C 61% Calm Calm -- 30.03 in1016.9 mb - 0.00 in0.0 mm 0.01 in0.3 mm
04:40 PM 77.3°F25.2°C 62.8°F17.1°C 61% Calm Calm -- 30.03 in1016.9 mb - 0.00 in0.0 mm 0.01 in0.3 mm
04:50 PM 76.8°F24.9°C 63.7°F17.6°C 64% Calm Calm -- 30.03 in1016.9 mb - 0.00 in0.0 mm 0.01 in0.3 mm
05:00 PM 76.2°F24.6°C 63.2°F17.3°C 64% Calm Calm -- 30.03 in1016.9 mb - 0.00 in0.0 mm 0.01 in0.3 mm
05:10 PM 75.7°F24.3°C 63.5°F17.5°C 66% Calm Calm -- 30.03 in1016.9 mb - 0.00 in0.0 mm 0.01 in0.3 mm
05:20 PM 75.2°F24.0°C 63.9°F17.7°C 68% Calm Calm -- 30.03 in1016.9 mb - 0.00 in0.0 mm 0.01 in0.3 mm
05:30 PM 74.8°F23.8°C 63.5°F17.5°C 68% Calm Calm -- 30.03 in1016.9 mb - 0.00 in0.0 mm 0.01 in0.3 mm
05:40 PM 74.3°F23.5°C 63.1°F17.3°C 68% Calm Calm -- 30.03 in1016.9 mb - 0.00 in0.0 mm 0.01 in0.3 mm
05:50 PM 73.9°F23.3°C 62.7°F17.1°C 68% Calm Calm -- 30.03 in1016.9 mb - 0.00 in0.0 mm 0.01 in0.3 mm
06:00 PM 73.5°F23.1°C 62.3°F16.8°C 68% Calm Calm -- 30.04 in1017.3 mb - 0.00 in0.0 mm 0.01 in0.3 mm
06:10 PM 73.1°F22.8°C 61.9°F16.6°C 68% Calm Calm -- 30.04 in1017.3 mb - 0.00 in0.0 mm 0.01 in0.3 mm
06:20 PM 72.6°F22.6°C 61.0°F16.1°C 67% Calm Calm -- 30.04 in1017.3 mb - 0.00 in0.0 mm 0.01 in0.3 mm
06:30 PM 72.0°F22.2°C 60.9°F16.1°C 68% Calm Calm -- 30.04 in1017.3 mb - 0.00 in0.0 mm 0.01 in0.3 mm
06:40 PM 71.5°F21.9°C 60.4°F15.8°C 68% Calm Calm -- 30.04 in1017.3 mb - 0.00 in0.0 mm 0.01 in0.3 mm
06:50 PM 70.8°F21.6°C 60.5°F15.8°C 70% Calm Calm -- 30.04 in1017.3 mb - 0.00 in0.0 mm 0.01 in0.3 mm
07:00 PM 70.2°F21.2°C 60.7°F15.9°C 72% Calm Calm -- 30.05 in1017.6 mb - 0.00 in0.0 mm 0.01 in0.3 mm
07:10 PM 69.4°F20.8°C 60.4°F15.8°C 73% Calm Calm -- 30.05 in1017.6 mb - 0.00 in0.0 mm 0.01 in0.3 mm
07:20 PM 68.8°F20.4°C 60.5°F15.8°C 75% Calm Calm -- 30.05 in1017.6 mb - 0.00 in0.0 mm 0.01 in0.3 mm
07:30 PM 68.1°F20.1°C 60.6°F15.9°C 77% Calm Calm -- 30.06 in1017.9 mb - 0.00 in0.0 mm 0.01 in0.3 mm
07:40 PM 67.3°F19.6°C 60.6°F15.9°C 79% Calm Calm -- 30.06 in1017.9 mb - 0.00 in0.0 mm 0.01 in0.3 mm
07:50 PM 66.7°F19.3°C 60.3°F15.7°C 80% Calm Calm -- 30.06 in1017.9 mb - 0.00 in0.0 mm 0.01 in0.3 mm
08:00 PM 66.1°F18.9°C 60.1°F15.6°C 81% Calm Calm -- 30.07 in1018.3 mb - 0.00 in0.0 mm 0.01 in0.3 mm
08:10 PM 65.5°F18.6°C 60.5°F15.8°C 84% Calm Calm -- 30.07 in1018.3 mb - 0.00 in0.0 mm 0.01 in0.3 mm
08:20 PM 65.0°F18.3°C 60.4°F15.8°C 85% Calm Calm -- 30.08 in1018.6 mb - 0.00 in0.0 mm 0.01 in0.3 mm
08:30 PM 64.6°F18.1°C 60.3°F15.7°C 86% Calm Calm -- 30.08 in1018.6 mb - 0.00 in0.0 mm 0.01 in0.3 mm
08:40 PM 64.1°F17.8°C 60.2°F15.7°C 87% Calm Calm -- 30.09 in1019.0 mb - 0.00 in0.0 mm 0.01 in0.3 mm
08:50 PM 63.8°F17.7°C 60.2°F15.7°C 88% Calm Calm -- 30.09 in1019.0 mb - 0.00 in0.0 mm 0.01 in0.3 mm
09:00 PM 63.5°F17.5°C 59.9°F15.5°C 88% Calm Calm -- 30.09 in1019.0 mb - 0.00 in0.0 mm 0.01 in0.3 mm
09:10 PM 63.1°F17.3°C 59.8°F15.4°C 89% Calm Calm -- 30.09 in1019.0 mb - 0.00 in0.0 mm 0.01 in0.3 mm
09:20 PM 62.8°F17.1°C 59.5°F15.3°C 89% Calm Calm -- 30.09 in1019.0 mb - 0.00 in0.0 mm 0.01 in0.3 mm
09:30 PM 62.5°F16.9°C 59.5°F15.3°C 90% Calm Calm -- 30.09 in1019.0 mb - 0.00 in0.0 mm 0.01 in0.3 mm
09:40 PM 62.2°F16.8°C 59.2°F15.1°C 90% Calm Calm -- 30.09 in1019.0 mb - 0.00 in0.0 mm 0.01 in0.3 mm
09:50 PM 62.0°F16.7°C 59.3°F15.2°C 91% Calm Calm -- 30.09 in1019.0 mb - 0.00 in0.0 mm 0.01 in0.3 mm
10:00 PM 61.7°F16.5°C 59.0°F15.0°C 91% Calm Calm -- 30.09 in1019.0 mb - 0.00 in0.0 mm 0.01 in0.3 mm
10:10 PM 61.4°F16.3°C 58.7°F14.8°C 91% Calm Calm -- 30.09 in1019.0 mb - 0.00 in0.0 mm 0.01 in0.3 mm
10:20 PM 61.2°F16.2°C 58.5°F14.7°C 91% Calm Calm -- 30.10 in1019.3 mb - 0.00 in0.0 mm 0.01 in0.3 mm
10:30 PM 60.9°F16.1°C 58.6°F14.8°C 92% Calm Calm -- 30.10 in1019.3 mb - 0.00 in0.0 mm 0.01 in0.3 mm
10:40 PM 60.7°F15.9°C 58.4°F14.7°C 92% Calm Calm -- 30.10 in1019.3 mb - 0.00 in0.0 mm 0.01 in0.3 mm
10:50 PM 60.4°F15.8°C 58.1°F14.5°C 92% Calm Calm -- 30.11 in1019.6 mb - 0.00 in0.0 mm 0.01 in0.3 mm
11:00 PM 60.2°F15.7°C 57.9°F14.4°C 92% Calm Calm -- 30.11 in1019.6 mb - 0.00 in0.0 mm 0.01 in0.3 mm
11:10 PM 60.0°F15.6°C 57.7°F14.3°C 92% Calm Calm -- 30.11 in1019.6 mb - 0.00 in0.0 mm 0.01 in0.3 mm
11:20 PM 59.7°F15.4°C 57.7°F14.3°C 93% Calm Calm -- 30.11 in1019.6 mb - 0.00 in0.0 mm 0.01 in0.3 mm
11:30 PM 59.5°F15.3°C 57.5°F14.2°C 93% Calm Calm -- 30.11 in1019.6 mb - 0.00 in0.0 mm 0.01 in0.3 mm
11:40 PM 59.3°F15.2°C 57.3°F14.1°C 93% Calm Calm -- 30.11 in1019.6 mb - 0.00 in0.0 mm 0.01 in0.3 mm
11:50 PM 59.0°F15.0°C 57.0°F13.9°C 93% Calm Calm -- 30.11 in1019.6 mb - 0.00 in0.0 mm 0.01 in0.3 mm